createdAt,value
2019-05-03T00:02:07.923Z,10.91
2019-05-03T00:04:34.632Z,10.87
2019-05-03T00:07:02.698Z,10.86
2019-05-03T00:09:29.715Z,10.75
2019-05-03T00:11:56.441Z,10.66
2019-05-03T00:14:23.350Z,10.59
2019-05-03T00:16:52.097Z,10.47
2019-05-03T00:19:18.622Z,10.47
2019-05-03T00:21:45.419Z,10.42
2019-05-03T00:24:12.153Z,10.43
2019-05-03T00:26:38.972Z,10.43
2019-05-03T00:29:05.707Z,10.44
2019-05-03T00:31:32.449Z,10.37
2019-05-03T00:33:59.230Z,10.34
2019-05-03T00:36:25.931Z,10.30
2019-05-03T00:38:52.775Z,10.35
2019-05-03T00:41:21.468Z,10.38
2019-05-03T00:43:48.075Z,10.32
2019-05-03T00:46:14.856Z,10.30
2019-05-03T00:48:43.029Z,10.27
2019-05-03T00:51:11.731Z,10.27
2019-05-03T00:53:38.524Z,10.26
2019-05-03T00:56:05.285Z,10.25
2019-05-03T00:58:32.070Z,10.30
2019-05-03T01:00:58.815Z,10.36
2019-05-03T01:03:25.564Z,10.27
2019-05-03T01:05:52.956Z,10.35
2019-05-03T01:08:21.889Z,10.37
2019-05-03T01:10:48.484Z,10.34
2019-05-03T01:13:15.320Z,10.25
2019-05-03T01:15:42.390Z,10.25
2019-05-03T01:18:09.210Z,10.22
2019-05-03T01:20:36.165Z,10.22
2019-05-03T01:23:02.899Z,10.17
2019-05-03T01:25:33.081Z,10.20
2019-05-03T01:27:58.214Z,10.15
2019-05-03T01:30:24.946Z,10.13
2019-05-03T01:32:52.370Z,10.11
2019-05-03T01:35:19.257Z,10.12
2019-05-03T01:37:46.057Z,10.10
2019-05-03T01:40:12.857Z,10.09
2019-05-03T01:42:39.645Z,10.07
2019-05-03T01:45:06.548Z,9.89
2019-05-03T01:47:33.277Z,9.73
2019-05-03T01:50:00.044Z,9.76
2019-05-03T01:52:26.795Z,9.74
2019-05-03T01:54:53.605Z,9.75
2019-05-03T01:57:21.945Z,9.76
2019-05-03T01:59:48.915Z,9.77
2019-05-03T02:02:15.648Z,9.75
2019-05-03T02:04:42.459Z,9.76
2019-05-03T02:07:09.243Z,9.74
2019-05-03T02:09:36.048Z,9.71
2019-05-03T02:12:03.297Z,9.66
2019-05-03T02:14:31.719Z,9.64
2019-05-03T02:16:58.538Z,9.52
2019-05-03T02:19:25.355Z,9.60
2019-05-03T02:21:52.442Z,9.60
2019-05-03T02:24:19.560Z,9.55
2019-05-03T02:26:46.288Z,9.51
2019-05-03T02:29:13.081Z,9.53
2019-05-03T02:31:39.791Z,9.51
2019-05-03T02:34:06.575Z,9.48
2019-05-03T02:36:33.875Z,9.48
2019-05-03T02:39:02.899Z,9.53
2019-05-03T02:41:29.493Z,9.56
2019-05-03T02:43:56.277Z,9.56
2019-05-03T02:46:25.185Z,9.55
2019-05-03T02:48:51.545Z,9.55
2019-05-03T02:51:18.290Z,9.53
2019-05-03T02:53:45.801Z,9.49
2019-05-03T02:56:20.949Z,9.49
2019-05-03T02:58:41.184Z,9.53
2019-05-03T03:01:08.000Z,9.53
2019-05-03T03:03:36.232Z,9.48
2019-05-03T03:06:06.739Z,9.40
2019-05-03T03:08:36.701Z,9.38
2019-05-03T03:11:07.371Z,9.38
2019-05-03T03:13:37.389Z,9.32
2019-05-03T03:16:09.198Z,9.26
2019-05-03T03:18:39.012Z,9.18
2019-05-03T03:21:09.326Z,9.14
2019-05-03T03:23:47.310Z,9.13
2019-05-03T03:26:33.338Z,9.14
2019-05-03T03:28:55.698Z,9.08
2019-05-03T03:31:29.414Z,9.03
2019-05-03T03:34:01.621Z,8.92
2019-05-03T03:36:46.194Z,8.78
2019-05-03T03:39:00.336Z,8.76
2019-05-03T03:41:29.548Z,8.76
2019-05-03T03:43:57.395Z,8.75
2019-05-03T03:46:26.929Z,8.73
2019-05-03T03:48:56.039Z,8.70
2019-05-03T03:51:26.139Z,8.73
2019-05-03T03:53:55.454Z,8.72
2019-05-03T03:56:25.552Z,8.76
2019-05-03T03:58:52.155Z,8.75
2019-05-03T04:01:19.378Z,8.74
2019-05-03T04:03:46.196Z,8.74
2019-05-03T04:06:15.372Z,8.72
2019-05-03T04:08:45.114Z,8.63
2019-05-03T04:11:11.096Z,8.57
2019-05-03T04:13:37.849Z,8.59
2019-05-03T04:16:05.508Z,8.61
2019-05-03T04:18:32.551Z,8.63
2019-05-03T04:20:59.551Z,8.69
2019-05-03T04:23:27.007Z,8.70
2019-05-03T04:25:56.683Z,8.73
2019-05-03T04:28:25.372Z,8.67
2019-05-03T04:30:51.182Z,8.68
2019-05-03T04:33:17.981Z,8.71
2019-05-03T04:35:46.486Z,8.73
2019-05-03T04:38:16.043Z,8.70
2019-05-03T04:40:41.988Z,8.66
2019-05-03T04:43:08.725Z,8.65
2019-05-03T04:45:36.671Z,8.63
2019-05-03T04:48:05.936Z,8.61
2019-05-03T04:50:36.363Z,8.57
2019-05-03T04:53:05.513Z,8.57
2019-05-03T04:55:31.071Z,8.54
2019-05-03T04:57:57.816Z,8.54
2019-05-03T05:00:25.589Z,8.54
2019-05-03T05:02:55.597Z,8.53
2019-05-03T05:05:22.375Z,8.54
2019-05-03T05:07:49.169Z,8.52
2019-05-03T05:10:15.900Z,8.54
2019-05-03T05:12:42.619Z,8.54
2019-05-03T05:15:09.595Z,8.57
2019-05-03T05:17:36.355Z,8.61
2019-05-03T05:20:05.466Z,8.63
2019-05-03T05:22:32.182Z,8.63
2019-05-03T05:24:58.919Z,8.65
2019-05-03T05:27:25.811Z,8.69
2019-05-03T05:29:52.560Z,8.71
2019-05-03T05:32:19.315Z,8.73
2019-05-03T05:34:46.261Z,8.75
2019-05-03T05:37:14.540Z,8.73
2019-05-03T05:39:41.361Z,8.72
2019-05-03T05:42:08.218Z,8.73
2019-05-03T05:44:35.275Z,8.76
2019-05-03T05:47:02.057Z,8.79
2019-05-03T05:49:28.976Z,8.82
2019-05-03T05:51:55.682Z,8.86
2019-05-03T05:54:24.532Z,8.88
2019-05-03T05:56:51.080Z,8.90
2019-05-03T05:59:17.803Z,8.89
2019-05-03T06:01:45.676Z,8.98
2019-05-03T06:04:12.424Z,9.00
2019-05-03T06:06:39.389Z,9.00
2019-05-03T06:09:06.745Z,8.99
2019-05-03T06:11:34.744Z,8.98
2019-05-03T06:14:01.672Z,8.97
2019-05-03T06:16:28.385Z,8.95
2019-05-03T06:18:55.236Z,9.01
2019-05-03T06:21:21.983Z,9.01
2019-05-03T06:23:48.725Z,9.05
2019-05-03T06:26:15.694Z,9.07
2019-05-03T06:28:42.374Z,9.10
2019-05-03T06:31:09.091Z,9.11
2019-05-03T06:33:35.881Z,9.15
2019-05-03T06:36:04.841Z,9.19
2019-05-03T06:38:31.664Z,9.22
2019-05-03T06:40:58.392Z,9.23
2019-05-03T06:43:25.145Z,9.25
2019-05-03T06:45:51.956Z,9.29
2019-05-03T06:48:22.415Z,9.34
2019-05-03T06:50:47.229Z,9.40
2019-05-03T06:53:15.527Z,9.39
2019-05-03T06:55:45.479Z,9.46
2019-05-03T06:58:10.993Z,9.52
2019-05-03T07:00:37.859Z,9.56
2019-05-03T07:03:04.978Z,9.61
2019-05-03T07:05:31.930Z,9.59
2019-05-03T07:07:58.730Z,9.68
2019-05-03T07:10:25.457Z,9.68
2019-05-03T07:12:52.739Z,9.72
2019-05-03T07:15:20.805Z,9.79
2019-05-03T07:17:47.513Z,9.84
2019-05-03T07:20:14.797Z,9.93
2019-05-03T07:22:41.737Z,9.99
2019-05-03T07:25:08.552Z,9.97
2019-05-03T07:27:35.265Z,10.09
2019-05-03T07:30:05.151Z,10.18
2019-05-03T07:32:31.871Z,10.21
2019-05-03T07:34:58.609Z,10.19
2019-05-03T07:37:25.469Z,10.19
2019-05-03T07:39:52.237Z,10.21
2019-05-03T07:42:19.000Z,10.28
2019-05-03T07:44:45.735Z,10.28
2019-05-03T07:47:12.483Z,10.34
2019-05-03T07:49:39.964Z,10.45
2019-05-03T07:52:06.836Z,10.55
2019-05-03T07:54:34.872Z,10.57
2019-05-03T07:57:01.880Z,10.69
2019-05-03T07:59:28.629Z,10.74
2019-05-03T08:01:55.482Z,10.72
2019-05-03T08:04:22.231Z,10.74
2019-05-03T08:06:48.964Z,10.59
2019-05-03T08:09:15.762Z,10.52
2019-05-03T08:11:44.310Z,10.50
2019-05-03T08:14:11.032Z,10.57
2019-05-03T08:16:37.796Z,10.75
2019-05-03T08:19:05.000Z,10.81
2019-05-03T08:21:31.995Z,10.96
2019-05-03T08:23:58.745Z,11.04
2019-05-03T08:26:25.905Z,11.16
2019-05-03T08:28:54.483Z,11.29
2019-05-03T08:31:23.890Z,11.37
2019-05-03T08:33:49.897Z,11.48
2019-05-03T08:36:16.618Z,11.52
2019-05-03T08:38:45.151Z,11.39
2019-05-03T08:41:11.993Z,11.40
2019-05-03T08:43:38.761Z,11.54
2019-05-03T08:46:05.529Z,11.65
2019-05-03T08:48:32.258Z,11.66
2019-05-03T08:50:59.070Z,11.69
2019-05-03T08:53:25.861Z,11.80
2019-05-03T08:55:52.595Z,11.89
2019-05-03T08:58:19.430Z,12.01
2019-05-03T09:00:46.156Z,12.05
2019-05-03T09:03:14.416Z,12.22
2019-05-03T09:05:41.421Z,12.30
2019-05-03T09:08:08.165Z,12.37
2019-05-03T09:10:35.286Z,12.39
2019-05-03T09:13:05.533Z,12.49
2019-05-03T09:15:30.609Z,12.58
2019-05-03T09:17:57.397Z,12.64
2019-05-03T09:20:25.082Z,12.62
2019-05-03T09:22:52.017Z,12.42
2019-05-03T09:25:18.753Z,12.48
2019-05-03T09:27:45.502Z,12.55
2019-05-03T09:30:14.484Z,12.57
2019-05-03T09:32:41.555Z,12.57
2019-05-03T09:35:27.190Z,12.61
2019-05-03T09:37:41.086Z,12.69
2019-05-03T09:40:07.867Z,12.75
2019-05-03T09:42:35.237Z,12.82
2019-05-03T09:45:04.924Z,12.86
2019-05-03T09:47:31.742Z,12.90
2019-05-03T09:49:58.639Z,12.96
2019-05-03T09:52:25.399Z,13.02
2019-05-03T09:54:54.642Z,13.11
2019-05-03T09:57:20.914Z,13.07
2019-05-03T09:59:56.503Z,13.05
2019-05-03T10:02:16.194Z,13.20
2019-05-03T10:04:44.587Z,13.24
2019-05-03T10:07:11.713Z,13.30
2019-05-03T10:09:38.466Z,13.32
2019-05-03T10:12:05.553Z,13.39
2019-05-03T10:14:32.430Z,13.44
2019-05-03T10:16:59.156Z,13.42
2019-05-03T10:19:36.627Z,13.46
2019-05-03T10:21:54.471Z,13.52
2019-05-03T10:24:21.290Z,13.58
2019-05-03T10:26:48.025Z,13.61
2019-05-03T10:29:15.287Z,13.68
2019-05-03T10:31:42.029Z,13.72
2019-05-03T10:34:08.794Z,13.80
2019-05-03T10:36:35.708Z,13.88
2019-05-03T10:39:04.818Z,13.85
2019-05-03T10:41:31.695Z,13.84
2019-05-03T10:43:58.610Z,13.86
2019-05-03T10:46:25.594Z,13.84
2019-05-03T10:48:52.341Z,13.80
2019-05-03T10:51:19.179Z,13.82
2019-05-03T10:53:45.951Z,13.77
2019-05-03T10:56:13.925Z,13.75
2019-05-03T10:58:41.306Z,13.67
2019-05-03T11:01:08.029Z,13.60
2019-05-03T11:03:34.810Z,13.44
2019-05-03T11:06:01.695Z,13.37
2019-05-03T11:08:28.445Z,13.35
2019-05-03T11:10:55.171Z,13.34
2019-05-03T11:13:22.031Z,13.30
2019-05-03T11:15:49.062Z,13.28
2019-05-03T11:18:15.933Z,13.15
2019-05-03T11:20:42.882Z,13.04
2019-05-03T11:23:09.618Z,13.06
2019-05-03T11:25:36.478Z,13.11
2019-05-03T11:28:04.885Z,13.18
2019-05-03T11:30:31.807Z,13.26
2019-05-03T11:32:58.693Z,13.42
2019-05-03T11:35:25.416Z,13.54
2019-05-03T11:37:52.179Z,13.73
2019-05-03T11:40:19.090Z,13.91
2019-05-03T11:42:45.862Z,13.89
2019-05-03T11:45:15.160Z,13.74
2019-05-03T11:47:41.762Z,13.74
2019-05-03T11:50:08.704Z,13.85
2019-05-03T11:52:35.730Z,14.07
2019-05-03T11:55:11.427Z,14.32
2019-05-03T11:57:35.708Z,14.38
2019-05-03T12:00:06.220Z,14.28
2019-05-03T12:02:33.108Z,14.03
2019-05-03T12:04:59.920Z,13.96
2019-05-03T12:07:38.616Z,13.84
2019-05-03T12:09:55.215Z,13.72
2019-05-03T12:12:21.955Z,13.60
2019-05-03T12:14:48.815Z,13.49
2019-05-03T12:17:20.849Z,13.33
2019-05-03T12:19:46.897Z,13.22
2019-05-03T12:22:14.074Z,13.16
2019-05-03T12:24:42.569Z,13.18
2019-05-03T12:27:10.070Z,13.14
2019-05-03T12:29:37.023Z,12.97
2019-05-03T12:32:05.278Z,12.86
2019-05-03T12:34:32.179Z,12.80
2019-05-03T12:36:58.970Z,12.72
2019-05-03T12:39:30.044Z,12.69
2019-05-03T12:41:55.012Z,12.72
2019-05-03T12:44:21.838Z,12.77
2019-05-03T12:46:48.569Z,12.79
2019-05-03T12:49:15.600Z,12.78
2019-05-03T12:51:42.271Z,12.70
2019-05-03T12:54:09.035Z,12.67
2019-05-03T12:56:35.960Z,12.70
2019-05-03T12:59:02.751Z,12.77
2019-05-03T13:01:40.861Z,12.80
2019-05-03T13:04:00.147Z,12.87
2019-05-03T13:06:26.882Z,12.89
2019-05-03T13:08:54.828Z,12.88
2019-05-03T13:11:21.784Z,12.79
2019-05-03T13:13:48.522Z,12.73
2019-05-03T13:16:15.405Z,12.72
2019-05-03T13:18:42.532Z,12.57
2019-05-03T13:21:09.269Z,12.59
2019-05-03T13:23:36.331Z,12.63
2019-05-03T13:26:05.656Z,12.64
2019-05-03T13:28:32.076Z,12.63
2019-05-03T13:30:58.799Z,12.63
2019-05-03T13:33:25.597Z,12.67
2019-05-03T13:35:52.406Z,12.68
2019-05-03T13:38:19.220Z,12.64
2019-05-03T13:40:46.384Z,12.66
2019-05-03T13:43:15.047Z,12.64
2019-05-03T13:45:41.777Z,12.61
2019-05-03T13:48:08.627Z,12.65
2019-05-03T13:50:35.439Z,12.62
2019-05-03T13:53:02.323Z,12.61
2019-05-03T13:55:29.087Z,12.53
2019-05-03T13:57:55.811Z,12.53
2019-05-03T14:00:24.531Z,12.45
2019-05-03T14:02:51.301Z,12.36
2019-05-03T14:05:18.030Z,12.39
2019-05-03T14:07:44.828Z,12.40
2019-05-03T14:10:12.276Z,12.38
2019-05-03T14:12:39.261Z,12.41
2019-05-03T14:15:06.757Z,12.44
2019-05-03T14:17:33.472Z,12.46
2019-05-03T14:20:00.240Z,12.45
2019-05-03T14:22:26.995Z,12.40
2019-05-03T14:24:53.738Z,12.43
2019-05-03T14:27:21.630Z,12.36
2019-05-03T14:29:48.356Z,12.27
2019-05-03T14:32:25.720Z,12.18
2019-05-03T14:34:45.382Z,12.15
2019-05-03T14:37:12.251Z,12.06
2019-05-03T14:39:39.010Z,12.00
2019-05-03T14:42:05.781Z,11.90
2019-05-03T14:44:32.671Z,11.86
2019-05-03T14:46:59.403Z,11.88
2019-05-03T14:49:26.176Z,11.81
2019-05-03T14:52:14.618Z,11.79
2019-05-03T14:54:41.264Z,11.78
2019-05-03T14:57:07.995Z,11.74
2019-05-03T14:59:34.786Z,11.89
2019-05-03T15:02:01.556Z,11.97
2019-05-03T15:04:28.250Z,11.98
2019-05-03T15:06:57.729Z,11.88
2019-05-03T15:09:25.142Z,11.87
2019-05-03T15:11:51.974Z,11.86
2019-05-03T15:14:18.790Z,11.74
2019-05-03T15:16:45.754Z,11.55
2019-05-03T15:19:14.648Z,11.57
2019-05-03T15:21:41.187Z,11.60
2019-05-03T15:24:07.907Z,11.59
2019-05-03T15:26:35.639Z,11.60
2019-05-03T15:29:04.722Z,11.54
2019-05-03T15:31:31.134Z,11.40
2019-05-03T15:33:57.848Z,11.37
2019-05-03T15:36:24.748Z,11.34
2019-05-03T15:38:51.485Z,11.31
2019-05-03T15:41:18.294Z,11.30
2019-05-03T15:43:45.462Z,11.21
2019-05-03T15:46:14.597Z,11.16
2019-05-03T15:48:42.692Z,11.14
2019-05-03T15:51:09.478Z,11.15
2019-05-03T15:53:36.298Z,11.13
2019-05-03T15:56:05.239Z,11.13
2019-05-03T15:58:31.692Z,11.08
2019-05-03T16:00:58.407Z,11.07
2019-05-03T16:03:25.392Z,11.04
2019-05-03T16:05:52.356Z,11.10
2019-05-03T16:08:19.101Z,11.11
2019-05-03T16:10:46.125Z,11.11
2019-05-03T16:13:14.303Z,11.16
2019-05-03T16:15:41.310Z,11.20
2019-05-03T16:18:08.054Z,11.16
2019-05-03T16:20:39.146Z,11.05
2019-05-03T16:23:04.970Z,11.03
2019-05-03T16:25:32.004Z,11.04
2019-05-03T16:27:58.890Z,11.07
2019-05-03T16:30:25.679Z,11.03
2019-05-03T16:32:52.453Z,11.02
2019-05-03T16:35:19.238Z,11.01
2019-05-03T16:37:45.981Z,11.04
2019-05-03T16:40:14.181Z,11.02
2019-05-03T16:42:41.787Z,10.99
2019-05-03T16:45:08.533Z,10.96
2019-05-03T16:47:35.526Z,10.90
2019-05-03T16:50:06.439Z,10.92
2019-05-03T16:52:34.871Z,10.93
2019-05-03T16:55:03.411Z,10.85
2019-05-03T16:57:30.283Z,10.89
2019-05-03T16:59:57.025Z,10.90
2019-05-03T17:02:26.776Z,10.89
2019-05-03T17:04:55.659Z,10.90
2019-05-03T17:07:22.095Z,10.91
2019-05-03T17:09:48.835Z,10.92
2019-05-03T17:12:15.709Z,10.91
2019-05-03T17:14:42.424Z,10.90
2019-05-03T17:17:09.140Z,10.87
2019-05-03T17:19:36.555Z,10.86
2019-05-03T17:22:05.473Z,10.88
2019-05-03T17:24:32.206Z,10.87
2019-05-03T17:26:59.050Z,10.87
2019-05-03T17:29:25.779Z,10.85
2019-05-03T17:31:52.513Z,10.80
2019-05-03T17:34:19.401Z,10.79
2019-05-03T17:36:46.152Z,10.78
2019-05-03T17:39:12.874Z,10.77
2019-05-03T17:41:39.700Z,10.76
2019-05-03T17:44:06.757Z,10.75
2019-05-03T17:46:34.735Z,10.68
2019-05-03T17:49:01.945Z,10.67
2019-05-03T17:51:29.093Z,10.64
2019-05-03T17:53:55.810Z,10.64
2019-05-03T17:56:24.385Z,10.59
2019-05-03T17:58:51.169Z,10.57
2019-05-03T18:01:17.900Z,10.53
2019-05-03T18:03:44.945Z,10.50
2019-05-03T18:06:11.665Z,10.49
2019-05-03T18:08:38.404Z,10.44
2019-05-03T18:11:05.249Z,10.44
2019-05-03T18:13:32.750Z,10.40
2019-05-03T18:15:59.588Z,10.41
2019-05-03T18:18:26.427Z,10.37
2019-05-03T18:20:53.165Z,10.34
2019-05-03T18:23:19.910Z,10.34
2019-05-03T18:25:46.805Z,10.31
2019-05-03T18:28:14.805Z,10.28
2019-05-03T18:30:41.979Z,10.19
2019-05-03T18:33:08.743Z,10.20
2019-05-03T18:35:35.489Z,10.20
2019-05-03T18:38:02.389Z,10.19
2019-05-03T18:40:32.353Z,10.17
2019-05-03T18:42:59.381Z,10.15
2019-05-03T18:45:26.138Z,10.10
2019-05-03T18:47:54.454Z,10.11
2019-05-03T18:50:34.957Z,10.12
2019-05-03T18:52:51.264Z,10.08
2019-05-03T18:55:18.115Z,10.05
2019-05-03T18:57:44.832Z,9.99
2019-05-03T19:00:12.573Z,9.93
2019-05-03T19:02:39.439Z,9.88
2019-05-03T19:05:06.471Z,9.86
2019-05-03T19:07:34.728Z,9.83
2019-05-03T19:10:02.633Z,9.75
2019-05-03T19:12:29.374Z,9.72
2019-05-03T19:14:56.119Z,9.68
2019-05-03T19:17:24.758Z,9.59
2019-05-03T19:19:51.494Z,9.55
2019-05-03T19:22:18.261Z,9.50
2019-05-03T19:24:45.100Z,9.49
2019-05-03T19:27:11.832Z,9.47
2019-05-03T19:29:38.627Z,9.47
2019-05-03T19:32:05.494Z,9.48
2019-05-03T19:34:44.478Z,9.44
2019-05-03T19:37:00.888Z,9.46
2019-05-03T19:39:27.792Z,9.42
2019-05-03T19:41:55.286Z,9.37
2019-05-03T19:44:22.136Z,9.35
2019-05-03T19:46:49.084Z,9.32
2019-05-03T19:49:15.782Z,9.30
2019-05-03T19:51:42.507Z,9.26
2019-05-03T19:54:09.376Z,9.25
2019-05-03T19:56:36.109Z,9.23
2019-05-03T19:59:04.655Z,9.17
2019-05-03T20:01:31.416Z,9.13
2019-05-03T20:03:58.135Z,9.17
2019-05-03T20:06:25.288Z,9.18
2019-05-03T20:08:52.221Z,9.18
2019-05-03T20:11:18.952Z,9.15
2019-05-03T20:13:45.806Z,9.13
2019-05-03T20:16:15.089Z,9.14
2019-05-03T20:18:41.435Z,9.08
2019-05-03T20:21:08.165Z,9.10
2019-05-03T20:23:35.028Z,9.10
2019-05-03T20:26:01.799Z,9.10
2019-05-03T20:28:28.541Z,9.06
2019-05-03T20:30:55.340Z,9.08
2019-05-03T20:33:22.063Z,9.06
2019-05-03T20:35:48.788Z,9.03
2019-05-03T20:38:15.669Z,9.02
2019-05-03T20:40:42.436Z,9.01
2019-05-03T20:43:09.172Z,8.99
2019-05-03T20:45:36.134Z,8.96
2019-05-03T20:48:05.259Z,8.94
2019-05-03T20:50:31.673Z,8.93
2019-05-03T20:52:58.554Z,8.92
2019-05-03T20:55:25.751Z,8.94
2019-05-03T20:57:52.540Z,8.94
2019-05-03T21:00:21.229Z,8.92
2019-05-03T21:02:53.827Z,8.91
2019-05-03T21:05:26.621Z,8.90
2019-05-03T21:07:45.975Z,8.90
2019-05-03T21:10:15.668Z,8.90
2019-05-03T21:12:42.623Z,8.88
2019-05-03T21:15:11.009Z,8.89
2019-05-03T21:17:37.733Z,8.88
2019-05-03T21:20:05.449Z,8.83
2019-05-03T21:22:32.245Z,8.84
2019-05-03T21:24:58.980Z,8.81
2019-05-03T21:27:25.719Z,8.81
2019-05-03T21:29:54.801Z,8.80
2019-05-03T21:32:21.136Z,8.79
2019-05-03T21:34:47.962Z,8.78
2019-05-03T21:37:15.143Z,8.77
2019-05-03T21:39:41.958Z,8.75
2019-05-03T21:42:08.700Z,8.74
2019-05-03T21:44:35.457Z,8.75
2019-05-03T21:47:02.251Z,8.76
2019-05-03T21:49:29.015Z,8.77
2019-05-03T21:51:55.893Z,8.77
2019-05-03T21:54:24.476Z,8.74
2019-05-03T21:56:51.145Z,8.72
2019-05-03T21:59:17.947Z,8.72
2019-05-03T22:01:45.624Z,8.68
2019-05-03T22:04:12.526Z,8.67
2019-05-03T22:06:39.405Z,8.65
2019-05-03T22:09:06.269Z,8.66
2019-05-03T22:11:32.995Z,8.65
2019-05-03T22:14:01.697Z,8.65
2019-05-03T22:16:28.392Z,8.62
2019-05-03T22:18:55.130Z,8.64
2019-05-03T22:21:21.919Z,8.65
2019-05-03T22:23:48.628Z,8.63
2019-05-03T22:26:15.495Z,8.63
2019-05-03T22:28:44.346Z,8.60
2019-05-03T22:31:10.961Z,8.59
2019-05-03T22:33:37.688Z,8.58
2019-05-03T22:36:08.498Z,8.59
2019-05-03T22:38:36.214Z,8.57
2019-05-03T22:41:01.630Z,8.52
2019-05-03T22:43:28.525Z,8.48
2019-05-03T22:45:55.265Z,8.51
2019-05-03T22:48:22.064Z,8.51
2019-05-03T22:50:48.933Z,8.51
2019-05-03T22:53:15.706Z,8.53
2019-05-03T22:55:42.436Z,8.54
2019-05-03T22:58:09.320Z,8.55
2019-05-03T23:00:36.068Z,8.57
2019-05-03T23:03:02.814Z,8.57
2019-05-03T23:05:29.668Z,8.55
2019-05-03T23:07:56.378Z,8.56
2019-05-03T23:10:23.142Z,8.57
2019-05-03T23:12:49.908Z,8.56
2019-05-03T23:15:16.657Z,8.56
2019-05-03T23:17:45.139Z,8.55
2019-05-03T23:20:12.300Z,8.53
2019-05-03T23:22:39.063Z,8.51
2019-05-03T23:25:06.071Z,8.49
2019-05-03T23:27:35.237Z,8.50
2019-05-03T23:30:01.704Z,8.48
2019-05-03T23:32:28.409Z,8.49
2019-05-03T23:34:55.193Z,8.50
2019-05-03T23:37:21.913Z,8.49
2019-05-03T23:39:48.653Z,8.51
2019-05-03T23:42:15.626Z,8.49
2019-05-03T23:44:42.391Z,8.48
2019-05-03T23:47:09.133Z,8.46
2019-05-03T23:49:35.957Z,8.42
2019-05-03T23:52:04.485Z,8.44
2019-05-03T23:54:31.237Z,8.42
2019-05-03T23:56:58.122Z,8.38
2019-05-03T23:59:24.843Z,8.32
